createdAt,value
2022-08-06T00:02:04.361Z,15.80
2022-08-06T00:04:31.642Z,15.80
2022-08-06T00:06:58.275Z,15.70
2022-08-06T00:09:25.110Z,15.60
2022-08-06T00:11:59.338Z,15.60
2022-08-06T00:14:31.007Z,15.60
2022-08-06T00:17:01.104Z,15.50
2022-08-06T00:19:58.068Z,15.50
2022-08-06T00:22:27.892Z,15.40
2022-08-06T00:24:55.787Z,15.40
2022-08-06T00:27:28.755Z,15.20
2022-08-06T00:29:57.143Z,15.10
2022-08-06T00:32:33.066Z,15.10
2022-08-06T00:35:00.224Z,15.10
2022-08-06T00:37:56.780Z,15.10
2022-08-06T00:40:23.703Z,15.00
2022-08-06T00:42:54.547Z,14.90
2022-08-06T00:45:23.946Z,14.80
2022-08-06T00:48:03.282Z,14.70
2022-08-06T00:50:35.273Z,14.60
2022-08-06T00:53:04.380Z,14.60
2022-08-06T00:55:36.447Z,14.60
2022-08-06T00:58:07.854Z,14.40
2022-08-06T01:00:45.201Z,14.40
2022-08-06T01:03:18.690Z,14.30
2022-08-06T01:06:52.804Z,14.30
2022-08-06T01:08:42.910Z,14.20
2022-08-06T01:11:12.846Z,14.20
2022-08-06T01:14:02.303Z,14.20
2022-08-06T01:16:45.598Z,14.20
2022-08-06T01:21:20.184Z,14.10
2022-08-06T01:23:06.627Z,14.10
2022-08-06T01:26:23.980Z,14.00
2022-08-06T01:29:09.688Z,14.00
2022-08-06T01:31:57.016Z,14.00
2022-08-06T01:34:34.868Z,13.90
2022-08-06T01:37:17.315Z,13.90
2022-08-06T01:40:01.626Z,13.90
2022-08-06T01:42:35.608Z,13.80
2022-08-06T01:45:06.209Z,13.80
2022-08-06T01:47:53.917Z,13.80
2022-08-06T01:50:29.089Z,13.80
2022-08-06T01:55:56.059Z,13.70
2022-08-06T01:58:33.872Z,13.70
2022-08-06T02:01:05.654Z,13.60
2022-08-06T02:03:49.343Z,13.60
2022-08-06T02:06:30.392Z,13.60
2022-08-06T02:09:22.581Z,13.60
2022-08-06T02:12:07.493Z,13.50
2022-08-06T02:14:53.980Z,13.50
2022-08-06T02:18:04.544Z,13.50
2022-08-06T02:20:18.867Z,13.50
2022-08-06T02:23:08.454Z,13.50
2022-08-06T02:25:42.120Z,13.50
2022-08-06T02:28:21.571Z,13.40
2022-08-06T02:30:56.195Z,13.40
2022-08-06T02:34:01.046Z,13.40
2022-08-06T02:36:26.281Z,13.40
2022-08-06T02:39:04.311Z,13.40
2022-08-06T02:41:55.036Z,13.40
2022-08-06T02:45:03.332Z,13.30
2022-08-06T02:48:01.128Z,13.40
2022-08-06T02:50:38.480Z,13.50
2022-08-06T02:53:37.509Z,13.50
2022-08-06T02:56:26.693Z,13.60
2022-08-06T02:58:59.203Z,13.60
2022-08-06T03:01:42.921Z,13.60
2022-08-06T03:04:12.541Z,13.70
2022-08-06T03:06:43.592Z,13.80
2022-08-06T03:09:15.131Z,13.80
2022-08-06T03:11:48.196Z,13.90
2022-08-06T03:15:03.603Z,13.90
2022-08-06T03:17:07.295Z,14.00
2022-08-06T03:19:57.031Z,14.10
2022-08-06T03:22:35.325Z,14.10
2022-08-06T03:25:09.908Z,14.10
2022-08-06T03:27:42.414Z,14.10
2022-08-06T03:30:32.076Z,14.10
2022-08-06T03:33:29.879Z,14.10
2022-08-06T03:36:00.603Z,14.10
2022-08-06T03:38:31.210Z,14.10
2022-08-06T03:41:01.430Z,14.00
2022-08-06T03:43:55.742Z,13.90
2022-08-06T03:46:24.162Z,13.90
2022-08-06T03:48:56.694Z,13.80
2022-08-06T03:51:29.879Z,13.90
2022-08-06T03:54:28.301Z,13.80
2022-08-06T03:57:12.219Z,13.80
2022-08-06T03:59:57.715Z,13.80
2022-08-06T04:02:45.928Z,13.80
2022-08-06T04:05:23.434Z,13.80
2022-08-06T04:07:56.605Z,13.90
2022-08-06T04:10:40.004Z,13.80
2022-08-06T04:14:03.805Z,13.90
2022-08-06T04:16:13.653Z,13.90
2022-08-06T04:18:42.790Z,13.90
2022-08-06T04:22:56.619Z,13.90
2022-08-06T04:24:10.173Z,13.90
2022-08-06T04:26:40.422Z,13.90
2022-08-06T04:29:12.855Z,13.90
2022-08-06T04:32:13.221Z,13.80
2022-08-06T04:36:02.668Z,13.80
2022-08-06T04:37:22.506Z,13.70
2022-08-06T04:39:50.965Z,13.60
2022-08-06T04:42:19.151Z,13.60
2022-08-06T04:44:59.465Z,13.60
2022-08-06T04:47:33.725Z,13.50
2022-08-06T04:50:11.286Z,13.60
2022-08-06T04:52:45.800Z,13.50
2022-08-06T04:55:23.959Z,13.50
2022-08-06T04:57:56.917Z,13.70
2022-08-06T05:00:59.087Z,13.80
2022-08-06T05:04:06.268Z,13.90
2022-08-06T05:06:21.348Z,14.00
2022-08-06T05:08:55.447Z,14.10
2022-08-06T05:11:41.648Z,14.40
2022-08-06T05:14:41.783Z,14.50
2022-08-06T05:17:12.008Z,14.70
2022-08-06T05:19:53.752Z,14.80
2022-08-06T05:22:53.734Z,14.80
2022-08-06T05:25:17.900Z,14.90
2022-08-06T05:28:04.034Z,15.00
2022-08-06T05:30:47.154Z,15.10
2022-08-06T05:33:29.984Z,15.20
2022-08-06T05:36:05.390Z,15.30
2022-08-06T05:38:36.377Z,15.40
2022-08-06T05:41:09.855Z,15.60
2022-08-06T05:44:00.291Z,15.80
2022-08-06T05:46:33.696Z,16.00
2022-08-06T05:49:58.807Z,16.30
2022-08-06T05:52:25.295Z,16.70
2022-08-06T05:55:01.658Z,17.00
2022-08-06T05:57:56.090Z,17.40
2022-08-06T06:00:42.167Z,17.70
2022-08-06T06:03:25.354Z,18.30
2022-08-06T06:06:04.637Z,19.20
2022-08-06T06:08:58.083Z,20.70
2022-08-06T06:11:55.754Z,22.40
2022-08-06T06:14:43.284Z,23.60
2022-08-06T06:17:40.194Z,24.70
2022-08-06T06:21:04.364Z,25.50
2022-08-06T06:23:54.718Z,25.70
2022-08-06T06:26:40.795Z,26.50
2022-08-06T06:30:02.614Z,26.40
2022-08-06T06:32:56.909Z,26.20
2022-08-06T06:35:49.401Z,25.50
2022-08-06T06:38:56.603Z,26.20
2022-08-06T06:41:55.857Z,26.60
2022-08-06T06:45:04.392Z,27.00
2022-08-06T06:47:48.169Z,26.50
2022-08-06T06:50:31.209Z,26.70
2022-08-06T06:53:03.342Z,27.70
2022-08-06T06:55:55.761Z,27.60
2022-08-06T06:58:51.960Z,27.10
2022-08-06T07:01:28.183Z,27.10
2022-08-06T07:03:58.103Z,28.00
2022-08-06T07:06:31.696Z,28.50
2022-08-06T07:09:41.782Z,28.40
2022-08-06T07:12:05.266Z,28.80
2022-08-06T07:14:42.365Z,29.10
2022-08-06T07:17:44.721Z,29.60
2022-08-06T07:20:03.207Z,30.20
2022-08-06T07:22:32.807Z,28.70
2022-08-06T07:25:01.952Z,27.90
2022-08-06T07:27:45.103Z,28.20
2022-08-06T07:30:26.000Z,28.50
2022-08-06T07:32:56.316Z,30.20
2022-08-06T07:35:26.149Z,30.40
2022-08-06T07:38:03.006Z,30.20
2022-08-06T07:40:38.539Z,29.50
2022-08-06T07:43:50.935Z,29.50
2022-08-06T07:46:23.646Z,29.20
2022-08-06T07:49:01.967Z,29.50
2022-08-06T07:51:34.764Z,29.10
2022-08-06T07:54:09.492Z,28.80
2022-08-06T07:57:00.066Z,30.90
2022-08-06T07:59:31.438Z,31.20
2022-08-06T08:02:05.974Z,29.80
2022-08-06T08:04:54.002Z,29.50
2022-08-06T08:07:37.987Z,29.40
2022-08-06T08:10:15.389Z,29.70
2022-08-06T08:12:45.099Z,29.10
2022-08-06T08:15:23.053Z,29.00
2022-08-06T08:20:33.457Z,27.50
2022-08-06T08:23:07.551Z,26.40
2022-08-06T08:25:43.459Z,27.10
2022-08-06T08:28:16.849Z,29.10
2022-08-06T08:30:49.729Z,30.00
2022-08-06T08:33:19.683Z,29.80
2022-08-06T08:35:48.853Z,30.40
2022-08-06T08:38:22.100Z,30.10
2022-08-06T08:40:56.218Z,32.00
2022-08-06T08:43:58.692Z,32.20
2022-08-06T08:46:30.746Z,32.20
2022-08-06T08:49:04.352Z,33.60
2022-08-06T08:51:42.924Z,33.40
2022-08-06T08:54:16.755Z,33.10
2022-08-06T08:57:09.688Z,31.80
2022-08-06T08:59:56.894Z,31.60
2022-08-06T09:02:20.955Z,32.20
2022-08-06T09:04:53.461Z,33.20
2022-08-06T09:07:25.817Z,34.40
2022-08-06T09:10:12.039Z,33.60
2022-08-06T09:12:45.645Z,33.30
2022-08-06T09:15:17.946Z,33.40
2022-08-06T09:18:10.938Z,34.10
2022-08-06T09:20:37.211Z,32.60
2022-08-06T09:23:07.456Z,32.20
2022-08-06T09:25:49.988Z,33.10
2022-08-06T09:28:37.803Z,33.20
2022-08-06T09:31:22.456Z,33.30
2022-08-06T09:34:28.700Z,33.40
2022-08-06T09:36:57.101Z,34.30
2022-08-06T09:39:46.594Z,34.60
2022-08-06T09:42:47.157Z,33.60
2022-08-06T09:45:18.012Z,34.60
2022-08-06T09:48:06.714Z,33.50
2022-08-06T09:50:46.934Z,33.50
2022-08-06T09:53:18.927Z,34.50
2022-08-06T09:58:36.093Z,33.00
2022-08-06T10:01:23.099Z,30.50
2022-08-06T10:04:04.748Z,29.50
2022-08-06T10:06:58.251Z,30.10
2022-08-06T10:09:41.611Z,30.10
2022-08-06T10:12:26.385Z,30.60
2022-08-06T10:14:55.906Z,31.70
2022-08-06T10:17:24.126Z,31.50
2022-08-06T10:20:18.264Z,30.60
2022-08-06T10:22:58.605Z,31.60
2022-08-06T10:25:30.263Z,30.20
2022-08-06T10:27:58.868Z,29.00
2022-08-06T10:30:29.283Z,27.40
2022-08-06T10:35:48.914Z,25.30
2022-08-06T10:38:21.956Z,24.60
2022-08-06T10:41:59.670Z,24.20
2022-08-06T10:43:57.957Z,23.90
2022-08-06T10:46:26.037Z,23.60
2022-08-06T10:50:23.369Z,23.60
2022-08-06T10:51:56.686Z,23.60
2022-08-06T10:54:27.013Z,23.10
2022-08-06T10:56:56.233Z,23.00
2022-08-06T10:59:25.814Z,23.30
2022-08-06T11:02:39.015Z,23.30
2022-08-06T11:05:53.445Z,22.90
2022-08-06T11:08:56.314Z,22.50
2022-08-06T11:12:05.665Z,22.80
2022-08-06T11:14:38.694Z,22.80
2022-08-06T11:17:11.093Z,22.90
2022-08-06T11:19:56.640Z,22.80
2022-08-06T11:22:53.561Z,22.60
2022-08-06T11:25:43.803Z,22.50
2022-08-06T11:28:16.118Z,22.50
2022-08-06T11:30:52.419Z,22.70
2022-08-06T11:33:35.357Z,22.60
2022-08-06T11:36:11.651Z,22.60
2022-08-06T11:38:50.603Z,22.60
2022-08-06T11:41:57.457Z,22.60
2022-08-06T11:44:33.629Z,22.80
2022-08-06T11:47:30.737Z,22.80
2022-08-06T11:50:03.866Z,22.80
2022-08-06T11:52:41.001Z,23.10
2022-08-06T11:55:22.768Z,23.00
2022-08-06T11:58:16.767Z,23.10
2022-08-06T12:01:03.569Z,23.10
2022-08-06T12:03:48.361Z,23.10
2022-08-06T12:06:26.094Z,23.40
2022-08-06T12:09:21.119Z,23.20
2022-08-06T12:12:24.525Z,23.00
2022-08-06T12:14:55.220Z,22.80
2022-08-06T12:17:31.163Z,22.60
2022-08-06T12:20:23.484Z,22.80
2022-08-06T12:22:50.963Z,22.80
2022-08-06T12:25:18.902Z,22.70
2022-08-06T12:27:50.350Z,22.70
2022-08-06T12:30:37.318Z,22.60
2022-08-06T12:33:10.538Z,22.60
2022-08-06T12:35:58.262Z,22.70
2022-08-06T12:38:28.445Z,22.70
2022-08-06T12:41:09.435Z,22.80
2022-08-06T12:43:56.492Z,23.00
2022-08-06T12:46:29.429Z,23.40
2022-08-06T12:48:59.003Z,23.50
2022-08-06T12:51:28.840Z,23.70
2022-08-06T12:54:05.139Z,23.70
2022-08-06T12:56:38.270Z,23.50
2022-08-06T12:59:16.187Z,23.20
2022-08-06T13:02:11.893Z,22.80
2022-08-06T13:04:45.926Z,22.70
2022-08-06T13:07:15.337Z,22.70
2022-08-06T13:10:17.265Z,22.70
2022-08-06T13:14:02.371Z,22.70
2022-08-06T13:15:22.379Z,22.80
2022-08-06T13:18:30.205Z,23.00
2022-08-06T13:20:59.067Z,23.00
2022-08-06T13:23:37.865Z,23.10
2022-08-06T13:26:26.026Z,23.20
2022-08-06T13:30:29.310Z,23.40
2022-08-06T13:32:19.128Z,23.40
2022-08-06T13:34:57.942Z,23.20
2022-08-06T13:37:57.042Z,23.00
2022-08-06T13:40:47.036Z,23.00
2022-08-06T13:43:39.923Z,23.00
2022-08-06T13:46:19.976Z,22.90
2022-08-06T13:48:53.011Z,22.70
2022-08-06T13:51:27.727Z,22.60
2022-08-06T13:53:57.460Z,22.80
2022-08-06T13:56:28.927Z,23.10
2022-08-06T13:58:56.851Z,23.20
2022-08-06T14:01:23.763Z,23.40
2022-08-06T14:03:50.622Z,23.60
2022-08-06T14:06:17.851Z,23.50
2022-08-06T14:08:44.770Z,23.50
2022-08-06T14:11:14.451Z,23.60
2022-08-06T14:13:42.535Z,23.80
2022-08-06T14:16:09.203Z,23.80
2022-08-06T14:18:39.869Z,23.80
2022-08-06T14:21:14.941Z,23.60
2022-08-06T14:24:01.164Z,23.50
2022-08-06T14:26:28.641Z,23.50
2022-08-06T14:30:26.023Z,23.60
2022-08-06T14:31:53.328Z,23.80
2022-08-06T14:34:35.246Z,23.70
2022-08-06T14:37:13.976Z,23.60
2022-08-06T14:39:59.848Z,23.10
2022-08-06T14:42:47.355Z,22.90
2022-08-06T14:45:15.181Z,23.00
2022-08-06T14:47:57.314Z,23.00
2022-08-06T14:50:38.051Z,23.10
2022-08-06T14:53:16.123Z,23.20
2022-08-06T14:56:07.350Z,23.20
2022-08-06T14:58:30.608Z,23.20
2022-08-06T15:00:58.130Z,23.20
2022-08-06T15:03:27.926Z,23.40
2022-08-06T15:06:06.115Z,23.50
2022-08-06T15:08:35.631Z,23.40
2022-08-06T15:11:06.046Z,23.20
2022-08-06T15:13:41.684Z,23.40
2022-08-06T15:16:22.281Z,23.40
2022-08-06T15:19:21.159Z,23.50
2022-08-06T15:21:51.057Z,23.60
2022-08-06T15:24:25.595Z,23.40
2022-08-06T15:26:54.977Z,23.20
2022-08-06T15:29:34.894Z,23.10
2022-08-06T15:32:17.376Z,23.20
2022-08-06T15:34:49.656Z,23.20
2022-08-06T15:37:52.301Z,23.20
2022-08-06T15:40:04.827Z,23.30
2022-08-06T15:42:34.247Z,23.50
2022-08-06T15:45:02.101Z,23.50
2022-08-06T15:47:32.657Z,23.50
2022-08-06T15:50:09.235Z,23.50
2022-08-06T15:52:44.126Z,23.30
2022-08-06T15:55:15.659Z,23.30
2022-08-06T15:57:50.218Z,23.20
2022-08-06T16:00:35.993Z,23.00
2022-08-06T16:03:05.927Z,22.80
2022-08-06T16:06:10.585Z,22.60
2022-08-06T16:08:32.899Z,22.60
2022-08-06T16:11:09.431Z,22.80
2022-08-06T16:13:53.804Z,22.80
2022-08-06T16:16:21.109Z,23.00
2022-08-06T16:18:53.917Z,23.10
2022-08-06T16:21:20.650Z,23.10
2022-08-06T16:23:57.668Z,23.10
2022-08-06T16:26:39.760Z,23.00
2022-08-06T16:29:11.811Z,22.90
2022-08-06T16:31:48.357Z,23.00
2022-08-06T16:34:25.184Z,22.90
2022-08-06T16:37:01.350Z,22.90
2022-08-06T16:39:35.656Z,22.90
2022-08-06T16:42:12.106Z,22.90
2022-08-06T16:45:00.337Z,22.80
2022-08-06T16:48:18.412Z,22.80
2022-08-06T16:50:18.517Z,22.80
2022-08-06T16:54:11.688Z,22.80
2022-08-06T16:55:42.443Z,22.80
2022-08-06T16:58:33.254Z,22.90
2022-08-06T17:01:00.606Z,22.80
2022-08-06T17:03:46.252Z,22.90
2022-08-06T17:06:17.555Z,22.70
2022-08-06T17:08:52.828Z,22.70
2022-08-06T17:11:45.593Z,22.60
2022-08-06T17:14:13.233Z,22.60
2022-08-06T17:16:42.131Z,22.60
2022-08-06T17:22:00.404Z,22.50
2022-08-06T17:24:36.748Z,22.30
2022-08-06T17:27:09.336Z,22.20
2022-08-06T17:29:46.033Z,22.30
2022-08-06T17:32:30.110Z,22.30
2022-08-06T17:35:09.157Z,22.30
2022-08-06T17:40:31.573Z,22.10
2022-08-06T17:43:12.525Z,21.90
2022-08-06T17:45:52.429Z,21.90
2022-08-06T17:48:31.016Z,21.80
2022-08-06T17:51:02.321Z,21.80
2022-08-06T17:53:52.063Z,21.70
2022-08-06T17:56:30.670Z,21.80
2022-08-06T17:59:17.071Z,21.70
2022-08-06T18:01:46.425Z,21.50
2022-08-06T18:04:21.736Z,21.50
2022-08-06T18:06:55.824Z,21.30
2022-08-06T18:10:09.822Z,21.30
2022-08-06T18:12:11.910Z,21.20
2022-08-06T18:14:38.892Z,21.10
2022-08-06T18:17:06.082Z,21.00
2022-08-06T18:19:36.901Z,20.90
2022-08-06T18:22:11.986Z,20.90
2022-08-06T18:24:51.433Z,20.80
2022-08-06T18:27:53.355Z,20.80
2022-08-06T18:30:36.436Z,20.60
2022-08-06T18:33:13.667Z,20.60
2022-08-06T18:35:57.513Z,20.50
2022-08-06T18:38:31.038Z,20.30
2022-08-06T18:41:06.018Z,20.20
2022-08-06T18:43:53.743Z,20.10
2022-08-06T18:46:56.466Z,20.00
2022-08-06T18:49:15.743Z,19.90
2022-08-06T18:51:45.229Z,19.80
2022-08-06T18:54:23.321Z,19.50
2022-08-06T18:56:52.472Z,19.40
2022-08-06T18:59:23.624Z,19.40
2022-08-06T19:01:57.507Z,19.30
2022-08-06T19:04:28.494Z,19.20
2022-08-06T19:07:03.101Z,19.10
2022-08-06T19:09:34.255Z,18.90
2022-08-06T19:12:13.849Z,18.70
2022-08-06T19:14:49.719Z,18.60
2022-08-06T19:17:22.516Z,18.50
2022-08-06T19:20:19.054Z,18.30
2022-08-06T19:22:53.200Z,18.20
2022-08-06T19:25:22.707Z,18.30
2022-08-06T19:28:31.629Z,18.30
2022-08-06T19:30:45.717Z,18.20
2022-08-06T19:33:15.896Z,18.10
2022-08-06T19:36:11.930Z,18.20
2022-08-06T19:38:34.365Z,18.30
2022-08-06T19:41:02.463Z,18.40
2022-08-06T19:44:27.143Z,18.40
2022-08-06T19:46:28.881Z,18.30
2022-08-06T19:48:59.151Z,18.30
2022-08-06T19:52:02.117Z,18.30
2022-08-06T19:54:17.582Z,18.20
2022-08-06T19:56:45.196Z,18.20
2022-08-06T20:00:52.023Z,18.10
2022-08-06T20:02:07.840Z,18.10
2022-08-06T20:04:36.051Z,18.10
2022-08-06T20:07:11.889Z,18.10
2022-08-06T20:09:59.827Z,18.10
2022-08-06T20:12:38.797Z,18.00
2022-08-06T20:15:14.022Z,18.00
2022-08-06T20:17:45.863Z,18.00
2022-08-06T20:20:28.148Z,17.90
2022-08-06T20:22:56.351Z,17.90
2022-08-06T20:25:23.824Z,17.90
2022-08-06T20:29:08.555Z,17.80
2022-08-06T20:30:44.830Z,17.80
2022-08-06T20:33:25.407Z,17.80
2022-08-06T20:35:57.110Z,17.70
2022-08-06T20:38:40.293Z,17.70
2022-08-06T20:41:59.049Z,17.50
2022-08-06T20:44:06.712Z,17.50
2022-08-06T20:49:29.617Z,17.60
2022-08-06T20:52:18.063Z,17.60
2022-08-06T20:54:52.071Z,17.60
2022-08-06T20:57:27.416Z,17.70
2022-08-06T20:59:59.810Z,17.60
2022-08-06T21:02:32.505Z,17.50
2022-08-06T21:05:15.485Z,17.40
2022-08-06T21:07:51.000Z,17.40
2022-08-06T21:10:30.350Z,17.40
2022-08-06T21:13:08.099Z,17.40
2022-08-06T21:15:54.148Z,17.30
2022-08-06T21:18:24.645Z,17.20
2022-08-06T21:20:54.034Z,17.20
2022-08-06T21:23:26.215Z,17.20
2022-08-06T21:26:15.052Z,17.30
2022-08-06T21:28:52.241Z,17.30
2022-08-06T21:31:23.153Z,17.30
2022-08-06T21:33:53.913Z,17.20
2022-08-06T21:36:26.863Z,17.30
2022-08-06T21:38:58.836Z,17.30
2022-08-06T21:41:29.240Z,17.20
2022-08-06T21:44:17.488Z,17.20
2022-08-06T21:46:50.004Z,17.20
2022-08-06T21:49:21.523Z,17.20
2022-08-06T21:52:05.277Z,17.20
2022-08-06T21:54:33.467Z,17.10
2022-08-06T21:57:02.134Z,17.10
2022-08-06T21:59:46.237Z,17.10
2022-08-06T22:02:26.659Z,17.10
2022-08-06T22:05:00.151Z,17.00
2022-08-06T22:08:04.654Z,17.00
2022-08-06T22:10:15.205Z,17.10
2022-08-06T22:13:12.725Z,17.00
2022-08-06T22:15:30.410Z,16.90
2022-08-06T22:18:03.099Z,16.90
2022-08-06T22:20:31.376Z,16.80
2022-08-06T22:23:00.004Z,16.80
2022-08-06T22:25:30.281Z,16.80
2022-08-06T22:28:02.065Z,16.90
2022-08-06T22:30:32.962Z,16.80
2022-08-06T22:33:11.057Z,16.90
2022-08-06T22:35:57.385Z,16.80
2022-08-06T22:38:31.947Z,16.70
2022-08-06T22:40:59.948Z,16.60
2022-08-06T22:43:51.639Z,16.70
2022-08-06T22:46:16.144Z,16.70
2022-08-06T22:48:47.161Z,16.70
2022-08-06T22:51:18.996Z,16.80
2022-08-06T22:54:29.773Z,16.80
2022-08-06T22:56:36.482Z,16.80
2022-08-06T22:59:31.827Z,16.80
2022-08-06T23:02:03.443Z,16.80
2022-08-06T23:04:35.303Z,16.80
2022-08-06T23:07:09.583Z,16.70
2022-08-06T23:09:40.704Z,16.70
2022-08-06T23:12:12.791Z,16.60
2022-08-06T23:14:40.952Z,16.50
2022-08-06T23:17:09.370Z,16.40
2022-08-06T23:19:56.084Z,16.30
2022-08-06T23:22:23.800Z,16.20
2022-08-06T23:25:03.819Z,16.10
2022-08-06T23:27:46.100Z,16.00
2022-08-06T23:30:20.118Z,15.90
2022-08-06T23:32:49.283Z,15.80
2022-08-06T23:35:35.359Z,15.80
2022-08-06T23:38:32.361Z,15.70
2022-08-06T23:40:52.235Z,15.60
2022-08-06T23:43:20.483Z,15.50
2022-08-06T23:45:50.370Z,15.40
2022-08-06T23:48:17.708Z,15.30
2022-08-06T23:50:50.705Z,15.20
2022-08-06T23:54:07.599Z,15.00
2022-08-06T23:56:10.047Z,15.00
2022-08-06T23:58:38.816Z,14.90
